createdAt,value
2019-02-16T00:00:26.333Z,18.88
2019-02-16T00:01:25.559Z,18.88
2019-02-16T00:02:25.800Z,18.87
2019-02-16T00:03:25.542Z,18.86
2019-02-16T00:04:25.109Z,18.86
2019-02-16T00:05:26.795Z,18.88
2019-02-16T00:06:26.371Z,18.87
2019-02-16T00:07:25.153Z,18.84
2019-02-16T00:08:25.010Z,18.83
2019-02-16T00:09:25.097Z,18.84
2019-02-16T00:10:25.382Z,18.83
2019-02-16T00:11:25.906Z,18.84
2019-02-16T00:12:25.395Z,18.82
2019-02-16T00:13:25.232Z,18.84
2019-02-16T00:14:24.944Z,18.82
2019-02-16T00:15:25.416Z,18.82
2019-02-16T00:16:25.220Z,18.82
2019-02-16T00:17:24.925Z,18.82
2019-02-16T00:18:25.236Z,18.81
2019-02-16T00:19:25.279Z,18.8
2019-02-16T00:20:25.085Z,18.82
2019-02-16T00:21:27.203Z,18.81
2019-02-16T00:22:24.771Z,18.81
2019-02-16T00:23:24.761Z,18.78
2019-02-16T00:24:25.373Z,18.78
2019-02-16T00:25:25.372Z,18.79
2019-02-16T00:26:25.143Z,18.78
2019-02-16T00:27:25.401Z,18.76
2019-02-16T00:28:25.523Z,18.78
2019-02-16T00:29:26.080Z,18.78
2019-02-16T00:30:25.055Z,18.76
2019-02-16T00:31:25.520Z,18.73
2019-02-16T00:32:25.042Z,18.77
2019-02-16T00:33:24.982Z,18.74
2019-02-16T00:34:25.358Z,18.74
2019-02-16T00:35:25.185Z,18.74
2019-02-16T00:36:25.604Z,18.71
2019-02-16T00:37:25.376Z,18.73
2019-02-16T00:38:25.312Z,18.72
2019-02-16T00:39:25.280Z,18.73
2019-02-16T00:40:25.210Z,18.71
2019-02-16T00:41:25.067Z,18.72
2019-02-16T00:42:24.925Z,18.71
2019-02-16T00:43:25.939Z,18.68
2019-02-16T00:44:26.382Z,18.7
2019-02-16T00:45:25.412Z,18.68
2019-02-16T00:46:25.976Z,18.68
2019-02-16T00:47:25.294Z,18.69
2019-02-16T00:48:25.352Z,18.69
2019-02-16T00:49:25.237Z,18.68
2019-02-16T00:50:25.230Z,18.67
2019-02-16T00:51:25.521Z,18.66
2019-02-16T00:52:25.284Z,18.65
2019-02-16T00:53:24.914Z,18.66
2019-02-16T00:54:25.850Z,18.66
2019-02-16T00:55:25.189Z,18.65
2019-02-16T00:56:25.951Z,18.67
2019-02-16T00:57:25.701Z,18.66
2019-02-16T00:58:25.072Z,18.66
2019-02-16T00:59:28.335Z,18.62
2019-02-16T01:00:25.093Z,18.66
2019-02-16T01:01:25.243Z,18.62
2019-02-16T01:02:25.278Z,18.62
2019-02-16T01:03:25.007Z,18.63
2019-02-16T01:04:25.049Z,18.62
2019-02-16T01:05:26.088Z,18.59
2019-02-16T01:06:25.782Z,18.61
2019-02-16T01:07:26.555Z,18.62
2019-02-16T01:08:24.995Z,18.62
2019-02-16T01:09:25.008Z,18.61
2019-02-16T01:10:26.101Z,18.61
2019-02-16T01:11:25.172Z,18.58
2019-02-16T01:12:25.421Z,18.58
2019-02-16T01:13:25.308Z,18.57
2019-02-16T01:14:24.850Z,18.57
2019-02-16T01:15:25.256Z,18.57
2019-02-16T01:16:24.906Z,18.57
2019-02-16T01:17:25.295Z,18.58
2019-02-16T01:18:25.004Z,18.56
2019-02-16T01:19:25.160Z,18.55
2019-02-16T01:20:25.049Z,18.55
2019-02-16T01:21:25.167Z,18.52
2019-02-16T01:22:25.286Z,18.54
2019-02-16T01:23:26.761Z,18.53
2019-02-16T01:24:24.830Z,18.53
2019-02-16T01:25:24.998Z,18.53
2019-02-16T01:26:24.902Z,18.53
2019-02-16T01:27:24.863Z,18.54
2019-02-16T01:28:24.713Z,18.57
2019-02-16T01:29:24.859Z,18.52
2019-02-16T01:30:25.679Z,18.53
2019-02-16T01:31:25.805Z,18.54
2019-02-16T01:32:25.140Z,18.5
2019-02-16T01:33:26.941Z,18.52
2019-02-16T01:34:24.754Z,18.5
2019-02-16T01:35:24.886Z,18.5
2019-02-16T01:36:24.780Z,18.5
2019-02-16T01:37:24.833Z,18.5
2019-02-16T01:38:25.362Z,18.5
2019-02-16T01:39:25.445Z,18.51
2019-02-16T01:40:25.919Z,18.49
2019-02-16T01:41:25.854Z,18.48
2019-02-16T01:42:25.107Z,18.49
2019-02-16T01:43:24.908Z,18.49
2019-02-16T01:44:25.109Z,18.46
2019-02-16T01:45:24.933Z,18.49
2019-02-16T01:46:25.068Z,18.47
2019-02-16T01:47:26.394Z,18.47
2019-02-16T01:48:25.991Z,18.47
2019-02-16T01:49:25.873Z,18.47
2019-02-16T01:50:25.995Z,18.44
2019-02-16T01:51:32.431Z,18.44
2019-02-16T01:52:24.960Z,18.46
2019-02-16T01:53:25.398Z,18.44
2019-02-16T01:54:26.759Z,18.47
2019-02-16T01:55:25.220Z,18.44
2019-02-16T01:56:26.934Z,18.44
2019-02-16T01:57:25.418Z,18.43
2019-02-16T01:58:25.321Z,18.44
2019-02-16T01:59:25.259Z,18.44
2019-02-16T02:00:25.210Z,18.44
2019-02-16T02:01:25.424Z,18.43
2019-02-16T02:02:25.098Z,18.43
2019-02-16T02:03:25.467Z,18.42
2019-02-16T02:04:25.223Z,18.42
2019-02-16T02:05:25.130Z,18.43
2019-02-16T02:06:25.203Z,18.44
2019-02-16T02:07:25.206Z,18.41
2019-02-16T02:08:25.724Z,18.41
2019-02-16T02:09:25.553Z,18.41
2019-02-16T02:10:25.641Z,18.39
2019-02-16T02:11:26.114Z,18.4
2019-02-16T02:12:25.233Z,18.4
2019-02-16T02:13:25.052Z,18.41
2019-02-16T02:14:25.572Z,18.4
2019-02-16T02:15:25.086Z,18.39
2019-02-16T02:16:25.648Z,18.38
2019-02-16T02:17:25.386Z,18.4
2019-02-16T02:18:26.804Z,18.39
2019-02-16T02:19:25.148Z,18.38
2019-02-16T02:20:25.286Z,18.38
2019-02-16T02:21:25.373Z,18.37
2019-02-16T02:22:25.028Z,18.38
2019-02-16T02:23:24.868Z,18.38
2019-02-16T02:24:25.193Z,18.38
2019-02-16T02:25:25.185Z,18.37
2019-02-16T02:26:25.475Z,18.37
2019-02-16T02:27:25.926Z,18.36
2019-02-16T02:28:25.347Z,18.36
2019-02-16T02:29:25.177Z,18.36
2019-02-16T02:30:25.391Z,18.33
2019-02-16T02:31:24.876Z,18.36
2019-02-16T02:32:25.190Z,18.35
2019-02-16T02:33:25.788Z,18.34
2019-02-16T02:34:25.121Z,18.35
2019-02-16T02:35:26.049Z,18.35
2019-02-16T02:36:25.339Z,18.33
2019-02-16T02:37:25.870Z,18.35
2019-02-16T02:38:25.249Z,18.33
2019-02-16T02:39:25.237Z,18.33
2019-02-16T02:40:25.838Z,18.3
2019-02-16T02:41:24.926Z,18.3
2019-02-16T02:42:25.267Z,18.32
2019-02-16T02:43:25.375Z,18.3
2019-02-16T02:44:25.865Z,18.3
2019-02-16T02:45:25.105Z,18.29
2019-02-16T02:46:25.586Z,18.28
2019-02-16T02:47:25.413Z,18.29
2019-02-16T02:48:24.945Z,18.26
2019-02-16T02:49:25.146Z,18.29
2019-02-16T02:50:25.185Z,18.28
2019-02-16T02:51:25.889Z,18.28
2019-02-16T02:52:25.061Z,18.29
2019-02-16T02:53:32.041Z,18.29
2019-02-16T02:54:25.731Z,18.26
2019-02-16T02:55:25.759Z,18.27
2019-02-16T02:56:26.733Z,18.26
2019-02-16T02:57:24.850Z,18.26
2019-02-16T02:58:25.225Z,18.27
2019-02-16T02:59:25.205Z,18.25
2019-02-16T03:00:24.929Z,18.26
2019-02-16T03:01:25.866Z,18.26
2019-02-16T03:02:25.218Z,18.26
2019-02-16T03:03:25.298Z,18.26
2019-02-16T03:04:25.097Z,18.25
2019-02-16T03:05:24.979Z,18.26
2019-02-16T03:06:25.731Z,18.22
2019-02-16T03:07:25.148Z,18.23
2019-02-16T03:08:25.462Z,18.26
2019-02-16T03:09:24.902Z,18.23
2019-02-16T03:10:25.224Z,18.22
2019-02-16T03:11:24.821Z,18.25
2019-02-16T03:12:25.787Z,18.22
2019-02-16T03:13:25.391Z,18.24
2019-02-16T03:14:25.315Z,18.22
2019-02-16T03:15:25.381Z,18.23
2019-02-16T03:16:27.017Z,18.21
2019-02-16T03:17:25.834Z,18.22
2019-02-16T03:18:25.132Z,18.19
2019-02-16T03:19:25.714Z,18.22
2019-02-16T03:20:25.243Z,18.23
2019-02-16T03:21:25.948Z,18.2
2019-02-16T03:22:25.055Z,18.2
2019-02-16T03:23:24.881Z,18.19
2019-02-16T03:24:25.167Z,18.19
2019-02-16T03:25:25.098Z,18.21
2019-02-16T03:26:24.854Z,18.2
2019-02-16T03:27:25.183Z,18.19
2019-02-16T03:28:27.046Z,18.18
2019-02-16T03:29:25.292Z,18.17
2019-02-16T03:30:25.324Z,18.17
2019-02-16T03:31:25.882Z,18.18
2019-02-16T03:32:25.090Z,18.17
2019-02-16T03:33:25.247Z,18.17
2019-02-16T03:34:25.124Z,18.17
2019-02-16T03:35:26.768Z,18.17
2019-02-16T03:36:25.567Z,18.15
2019-02-16T03:37:25.009Z,18.14
2019-02-16T03:38:25.448Z,18.15
2019-02-16T03:39:25.930Z,18.12
2019-02-16T03:40:24.768Z,18.14
2019-02-16T03:41:24.810Z,18.15
2019-02-16T03:42:25.483Z,18.13
2019-02-16T03:43:25.093Z,18.15
2019-02-16T03:44:25.405Z,18.12
2019-02-16T03:45:25.288Z,18.12
2019-02-16T03:46:25.366Z,18.12
2019-02-16T03:47:25.244Z,18.12
2019-02-16T03:48:25.110Z,18.12
2019-02-16T03:49:25.124Z,18.12
2019-02-16T03:50:25.297Z,18.12
2019-02-16T03:51:24.950Z,18.11
2019-02-16T03:52:25.726Z,18.11
2019-02-16T03:53:25.247Z,18.11
2019-02-16T03:54:25.616Z,18.1
2019-02-16T03:55:24.823Z,18.09
2019-02-16T03:56:25.371Z,18.1
2019-02-16T03:57:25.170Z,18.09
2019-02-16T03:58:25.154Z,18.11
2019-02-16T03:59:25.759Z,18.09
2019-02-16T04:00:25.972Z,18.09
2019-02-16T04:01:25.706Z,18.09
2019-02-16T04:02:25.389Z,18.08
2019-02-16T04:03:25.109Z,18.08
2019-02-16T04:04:26.842Z,18.07
2019-02-16T04:05:25.676Z,18.08
2019-02-16T04:06:24.927Z,18.05
2019-02-16T04:07:25.138Z,18.07
2019-02-16T04:08:25.661Z,18.08
2019-02-16T04:09:25.116Z,18.08
2019-02-16T04:10:25.169Z,18.07
2019-02-16T04:11:25.082Z,18.06
2019-02-16T04:12:25.273Z,18.06
2019-02-16T04:13:25.114Z,18.06
2019-02-16T04:14:26.881Z,18.06
2019-02-16T04:15:25.023Z,18.06
2019-02-16T04:16:25.400Z,18.05
2019-02-16T04:17:25.199Z,18.04
2019-02-16T04:18:24.955Z,18.05
2019-02-16T04:19:25.890Z,18.04
2019-02-16T04:20:25.031Z,18.04
2019-02-16T04:21:25.041Z,18.04
2019-02-16T04:22:25.941Z,18.03
2019-02-16T04:23:25.483Z,18.03
2019-02-16T04:24:25.484Z,18.03
2019-02-16T04:25:25.267Z,18.02
2019-02-16T04:26:26.683Z,18.02
2019-02-16T04:27:25.221Z,18.03
2019-02-16T04:28:25.246Z,18.03
2019-02-16T04:29:24.943Z,18.03
2019-02-16T04:30:24.863Z,18
2019-02-16T04:31:25.331Z,17.99
2019-02-16T04:32:30.002Z,18
2019-02-16T04:33:24.979Z,18.02
2019-02-16T04:34:25.245Z,17.98
2019-02-16T04:35:25.045Z,17.99
2019-02-16T04:36:25.084Z,17.99
2019-02-16T04:37:25.466Z,17.98
2019-02-16T04:38:25.360Z,17.99
2019-02-16T04:39:25.884Z,17.98
2019-02-16T04:40:25.424Z,17.98
2019-02-16T04:41:25.540Z,17.98
2019-02-16T04:42:24.973Z,17.99
2019-02-16T04:43:25.813Z,17.98
2019-02-16T04:44:25.876Z,17.99
2019-02-16T04:45:26.157Z,17.98
2019-02-16T04:46:25.165Z,17.99
2019-02-16T04:47:25.136Z,17.99
2019-02-16T04:48:25.883Z,17.99
2019-02-16T04:49:25.424Z,17.99
2019-02-16T04:50:26.816Z,17.98
2019-02-16T04:51:25.239Z,17.97
2019-02-16T04:52:35.512Z,18
2019-02-16T04:53:25.409Z,18
2019-02-16T04:54:24.916Z,18.03
2019-02-16T04:55:24.966Z,18.03
2019-02-16T04:56:25.848Z,18.04
2019-02-16T04:57:25.797Z,18.04
2019-02-16T04:58:25.483Z,18.05
2019-02-16T04:59:24.903Z,18.05
2019-02-16T05:00:24.943Z,18.05
2019-02-16T05:01:25.283Z,18.05
2019-02-16T05:02:25.012Z,18.07
2019-02-16T05:03:24.939Z,18.06
2019-02-16T05:04:25.147Z,18.06
2019-02-16T05:05:26.280Z,18.08
2019-02-16T05:06:25.095Z,18.1
2019-02-16T05:07:25.451Z,18.11
2019-02-16T05:08:25.774Z,18.11
2019-02-16T05:09:25.236Z,18.13
2019-02-16T05:10:25.049Z,18.14
2019-02-16T05:11:26.731Z,18.14
2019-02-16T05:12:25.167Z,18.18
2019-02-16T05:13:25.286Z,18.19
2019-02-16T05:14:24.929Z,18.21
2019-02-16T05:15:25.495Z,18.21
2019-02-16T05:16:25.002Z,18.25
2019-02-16T05:17:25.364Z,18.26
2019-02-16T05:18:25.656Z,18.26
2019-02-16T05:19:26.647Z,18.28
2019-02-16T05:20:25.162Z,18.32
2019-02-16T05:21:24.975Z,18.33
2019-02-16T05:22:25.078Z,18.36
2019-02-16T05:23:25.307Z,18.36
2019-02-16T05:24:25.018Z,18.36
2019-02-16T05:25:25.507Z,18.37
2019-02-16T05:26:25.879Z,18.41
2019-02-16T05:27:26.414Z,18.41
2019-02-16T05:28:25.296Z,18.43
2019-02-16T05:29:25.347Z,18.44
2019-02-16T05:30:25.610Z,18.46
2019-02-16T05:31:25.417Z,18.48
2019-02-16T05:32:25.095Z,18.48
2019-02-16T05:33:25.350Z,18.51
2019-02-16T05:34:25.656Z,18.51
2019-02-16T05:35:25.481Z,18.53
2019-02-16T05:36:26.856Z,18.53
2019-02-16T05:37:24.687Z,18.56
2019-02-16T05:38:24.805Z,18.57
2019-02-16T05:39:25.343Z,18.57
2019-02-16T05:40:24.992Z,18.59
2019-02-16T05:41:25.556Z,18.62
2019-02-16T05:42:25.106Z,18.63
2019-02-16T05:43:26.781Z,18.64
2019-02-16T05:44:25.255Z,18.66
2019-02-16T05:45:24.862Z,18.68
2019-02-16T05:46:26.725Z,18.69
2019-02-16T05:47:25.032Z,18.69
2019-02-16T05:48:25.665Z,18.71
2019-02-16T05:49:24.791Z,18.74
2019-02-16T05:50:25.158Z,18.73
2019-02-16T05:51:25.659Z,18.73
2019-02-16T05:52:25.555Z,18.76
2019-02-16T05:53:26.860Z,18.77
2019-02-16T05:54:25.186Z,18.78
2019-02-16T05:55:25.072Z,18.78
2019-02-16T05:56:26.884Z,18.81
2019-02-16T05:57:24.961Z,18.81
2019-02-16T05:58:25.014Z,18.82
2019-02-16T05:59:24.930Z,18.85
2019-02-16T06:00:25.377Z,18.85
2019-02-16T06:01:25.750Z,18.87
2019-02-16T06:02:25.035Z,18.88
2019-02-16T06:03:25.170Z,18.86
2019-02-16T06:04:25.149Z,18.92
2019-02-16T06:05:26.864Z,18.89
2019-02-16T06:06:25.357Z,18.92
2019-02-16T06:07:24.816Z,18.92
2019-02-16T06:08:26.917Z,18.94
2019-02-16T06:09:25.713Z,18.97
2019-02-16T06:10:25.308Z,18.96
2019-02-16T06:11:25.137Z,18.99
2019-02-16T06:12:24.992Z,18.99
2019-02-16T06:13:25.797Z,18.99
2019-02-16T06:14:25.229Z,18.98
2019-02-16T06:15:25.755Z,19.01
2019-02-16T06:16:25.250Z,19.03
2019-02-16T06:17:25.125Z,19.01
2019-02-16T06:18:25.044Z,19.03
2019-02-16T06:19:25.309Z,19.05
2019-02-16T06:20:24.766Z,19.07
2019-02-16T06:21:25.532Z,19.05
2019-02-16T06:22:26.755Z,19.08
2019-02-16T06:23:24.993Z,19.07
2019-02-16T06:24:25.426Z,19.1
2019-02-16T06:25:25.434Z,19.09
2019-02-16T06:26:25.714Z,19.12
2019-02-16T06:27:25.485Z,19.13
2019-02-16T06:28:24.792Z,19.13
2019-02-16T06:29:24.811Z,19.15
2019-02-16T06:30:25.145Z,19.13
2019-02-16T06:31:25.569Z,19.15
2019-02-16T06:32:26.625Z,19.17
2019-02-16T06:33:26.174Z,19.18
2019-02-16T06:34:24.991Z,19.21
2019-02-16T06:35:25.074Z,19.2
2019-02-16T06:36:24.967Z,19.21
2019-02-16T06:37:25.165Z,19.22
2019-02-16T06:38:24.946Z,19.23
2019-02-16T06:39:25.092Z,19.24
2019-02-16T06:40:24.789Z,19.23
2019-02-16T06:41:25.009Z,19.25
2019-02-16T06:42:25.047Z,19.26
2019-02-16T06:43:25.158Z,19.27
2019-02-16T06:44:24.888Z,19.29
2019-02-16T06:45:26.819Z,19.29
2019-02-16T06:46:25.140Z,19.3
2019-02-16T06:47:25.146Z,19.32
2019-02-16T06:48:25.885Z,19.32
2019-02-16T06:49:25.257Z,19.32
2019-02-16T06:50:25.086Z,19.35
2019-02-16T06:51:26.871Z,19.35
2019-02-16T06:52:25.582Z,19.35
2019-02-16T06:53:25.893Z,19.32
2019-02-16T06:54:25.313Z,19.25
2019-02-16T06:55:25.006Z,19.13
2019-02-16T06:56:25.013Z,19.01
2019-02-16T06:57:25.165Z,18.95
2019-02-16T06:58:25.097Z,18.85
2019-02-16T06:59:25.257Z,18.82
2019-02-16T07:00:25.352Z,18.83
2019-02-16T07:01:24.827Z,18.82
2019-02-16T07:02:24.917Z,18.82
2019-02-16T07:03:25.449Z,18.85
2019-02-16T07:04:26.694Z,18.84
2019-02-16T07:05:24.932Z,18.86
2019-02-16T07:06:24.665Z,18.89
2019-02-16T07:07:25.193Z,18.89
2019-02-16T07:08:25.399Z,18.91
2019-02-16T07:09:24.942Z,18.94
2019-02-16T07:10:24.844Z,18.95
2019-02-16T07:11:24.938Z,18.97
2019-02-16T07:12:24.829Z,18.98
2019-02-16T07:13:24.755Z,19
2019-02-16T07:14:26.578Z,19.03
2019-02-16T07:15:25.776Z,19.02
2019-02-16T07:16:24.923Z,19.03
2019-02-16T07:17:25.270Z,19.06
2019-02-16T07:18:25.082Z,19.08
2019-02-16T07:19:24.906Z,19.09
2019-02-16T07:20:25.277Z,19.11
2019-02-16T07:21:25.105Z,19.11
2019-02-16T07:22:25.152Z,19.11
2019-02-16T07:23:25.317Z,19.13
2019-02-16T07:24:26.663Z,19.14
2019-02-16T07:25:25.528Z,19.15
2019-02-16T07:26:25.002Z,19.13
2019-02-16T07:27:25.316Z,19.15
2019-02-16T07:28:25.276Z,19.15
2019-02-16T07:29:25.451Z,19.16
2019-02-16T07:30:24.962Z,19.17
2019-02-16T07:31:25.459Z,19.17
2019-02-16T07:32:25.153Z,19.16
2019-02-16T07:33:24.947Z,19.16
2019-02-16T07:34:26.718Z,19.15
2019-02-16T07:35:26.105Z,19.15
2019-02-16T07:36:25.741Z,19.16
2019-02-16T07:37:25.020Z,19.16
2019-02-16T07:38:24.867Z,19.17
2019-02-16T07:39:25.121Z,19.16
2019-02-16T07:40:25.433Z,19.16
2019-02-16T07:41:25.385Z,19.17
2019-02-16T07:42:25.241Z,19.17
2019-02-16T07:43:25.055Z,19.17
2019-02-16T07:44:24.743Z,19.15
2019-02-16T07:45:25.248Z,19.15
2019-02-16T07:46:25.357Z,19.13
2019-02-16T07:47:24.950Z,19.14
2019-02-16T07:48:24.825Z,19.15
2019-02-16T07:49:24.881Z,19.14
2019-02-16T07:50:25.594Z,19.14
2019-02-16T07:51:25.172Z,19.13
2019-02-16T07:52:25.134Z,19.13
2019-02-16T07:53:31.857Z,19.13
2019-02-16T07:54:24.859Z,19.12
2019-02-16T07:55:25.750Z,19.13
2019-02-16T07:56:25.031Z,19.11
2019-02-16T07:57:25.974Z,19.12
2019-02-16T07:58:24.939Z,19.11
2019-02-16T07:59:24.896Z,19.11
2019-02-16T08:00:25.150Z,19.11
2019-02-16T08:01:25.177Z,19.1
2019-02-16T08:02:24.782Z,19.1
2019-02-16T08:03:25.563Z,19.11
2019-02-16T08:04:25.790Z,19.09
2019-02-16T08:05:24.926Z,19.09
2019-02-16T08:06:25.325Z,19.1
2019-02-16T08:07:24.796Z,19.06
2019-02-16T08:08:25.150Z,19.08
2019-02-16T08:09:25.619Z,19.09
2019-02-16T08:10:24.916Z,19.06
2019-02-16T08:11:24.782Z,19.07
2019-02-16T08:12:24.822Z,19.06
2019-02-16T08:13:25.855Z,19.06
2019-02-16T08:14:25.377Z,19.06
2019-02-16T08:15:24.878Z,19.06
2019-02-16T08:16:24.879Z,19.06
2019-02-16T08:17:25.295Z,19.06
2019-02-16T08:18:25.516Z,19.05
2019-02-16T08:19:26.021Z,19.06
2019-02-16T08:20:26.766Z,19.06
2019-02-16T08:21:24.787Z,19.03
2019-02-16T08:22:24.936Z,19.06
2019-02-16T08:23:24.971Z,19.05
2019-02-16T08:24:25.260Z,19.02
2019-02-16T08:25:25.247Z,19.05
2019-02-16T08:26:24.782Z,19.05
2019-02-16T08:27:24.873Z,19.03
2019-02-16T08:28:24.882Z,19.03
2019-02-16T08:29:24.937Z,19.03
2019-02-16T08:30:24.741Z,19.06
2019-02-16T08:31:26.955Z,19.05
2019-02-16T08:32:24.837Z,19.03
2019-02-16T08:33:24.772Z,19.05
2019-02-16T08:34:25.096Z,19.05
2019-02-16T08:35:25.238Z,19.02
2019-02-16T08:36:25.068Z,19.03
2019-02-16T08:37:25.125Z,19.03
2019-02-16T08:38:24.787Z,19.03
2019-02-16T08:39:25.264Z,19.02
2019-02-16T08:40:26.064Z,19.03
2019-02-16T08:41:24.946Z,19.03
2019-02-16T08:42:24.791Z,19.03
2019-02-16T08:43:24.989Z,19.02
2019-02-16T08:44:25.433Z,19.05
2019-02-16T08:45:24.773Z,19.05
2019-02-16T08:46:24.726Z,19.07
2019-02-16T08:47:24.980Z,19.05
2019-02-16T08:48:24.845Z,19.05
2019-02-16T08:49:24.865Z,19.06
2019-02-16T08:50:25.103Z,19.05
2019-02-16T08:51:25.027Z,19.05
2019-02-16T08:52:25.266Z,19.06
2019-02-16T08:53:24.731Z,19.06
2019-02-16T08:54:24.820Z,19.07
2019-02-16T08:55:25.557Z,19.07
2019-02-16T08:56:24.674Z,19.07
2019-02-16T08:57:26.658Z,19.07
2019-02-16T08:58:24.817Z,19.06
2019-02-16T08:59:24.925Z,19.06
2019-02-16T09:00:24.862Z,19.06
2019-02-16T09:01:27.776Z,19.07
2019-02-16T09:02:24.898Z,19.05
2019-02-16T09:03:24.670Z,19.07
2019-02-16T09:04:25.231Z,19.05
2019-02-16T09:05:25.220Z,19.08
2019-02-16T09:06:24.858Z,19.07
2019-02-16T09:07:25.258Z,19.06
2019-02-16T09:08:24.778Z,19.07
2019-02-16T09:09:25.301Z,19.07
2019-02-16T09:10:26.503Z,19.07
2019-02-16T09:11:24.723Z,19.05
2019-02-16T09:12:24.902Z,19.06
2019-02-16T09:13:25.614Z,19.07
2019-02-16T09:14:24.685Z,19.08
2019-02-16T09:15:24.790Z,19.08
2019-02-16T09:16:24.719Z,19.08
2019-02-16T09:17:24.777Z,19.09
2019-02-16T09:18:24.885Z,19.06
2019-02-16T09:19:24.781Z,19.08
2019-02-16T09:20:25.099Z,19.08
2019-02-16T09:21:25.119Z,19.09
2019-02-16T09:22:24.715Z,19.1
2019-02-16T09:23:24.776Z,19.11
2019-02-16T09:24:25.204Z,19.1
2019-02-16T09:25:25.046Z,19.11
2019-02-16T09:26:25.067Z,19.1
2019-02-16T09:27:25.165Z,19.11
2019-02-16T09:28:24.735Z,19.1
2019-02-16T09:29:26.660Z,19.11
2019-02-16T09:30:24.909Z,19.13
2019-02-16T09:31:24.719Z,19.13
2019-02-16T09:32:25.204Z,19.13
2019-02-16T09:33:25.180Z,19.12
2019-02-16T09:34:25.022Z,19.14
2019-02-16T09:35:25.125Z,19.12
2019-02-16T09:36:24.964Z,19.16
2019-02-16T09:37:25.017Z,19.2
2019-02-16T09:38:25.063Z,19.17
2019-02-16T09:39:25.841Z,19.17
2019-02-16T09:40:24.752Z,19.18
2019-02-16T09:41:25.057Z,19.18
2019-02-16T09:42:24.955Z,19.18
2019-02-16T09:43:25.120Z,19.21
2019-02-16T09:44:25.036Z,19.22
2019-02-16T09:45:25.317Z,19.21
2019-02-16T09:46:25.179Z,19.2
2019-02-16T09:47:24.934Z,19.23
2019-02-16T09:48:25.106Z,19.23
2019-02-16T09:49:25.339Z,19.23
2019-02-16T09:50:25.084Z,19.23
2019-02-16T09:51:26.661Z,19.22
2019-02-16T09:52:25.101Z,19.23
2019-02-16T09:53:24.745Z,19.25
2019-02-16T09:54:24.710Z,19.24
2019-02-16T09:55:25.382Z,19.25
2019-02-16T09:56:25.388Z,19.25
2019-02-16T09:57:24.971Z,19.25
2019-02-16T09:58:24.776Z,19.23
2019-02-16T09:59:24.762Z,19.23
2019-02-16T10:00:24.865Z,19.24
2019-02-16T10:01:24.926Z,19.23
2019-02-16T10:02:25.100Z,19.26
2019-02-16T10:03:25.391Z,19.26
2019-02-16T10:04:25.113Z,19.25
2019-02-16T10:05:24.941Z,19.27
2019-02-16T10:06:25.576Z,19.25
2019-02-16T10:07:25.968Z,19.27
2019-02-16T10:08:26.670Z,19.27
2019-02-16T10:09:25.097Z,19.28
2019-02-16T10:10:24.873Z,19.29
2019-02-16T10:11:25.151Z,19.28
2019-02-16T10:12:25.000Z,19.28
2019-02-16T10:13:24.566Z,19.29
2019-02-16T10:14:24.694Z,19.28
2019-02-16T10:15:25.104Z,19.31
2019-02-16T10:16:24.717Z,19.29
2019-02-16T10:17:26.313Z,19.29
2019-02-16T10:18:24.916Z,19.29
2019-02-16T10:19:24.925Z,19.29
2019-02-16T10:20:24.945Z,19.3
2019-02-16T10:21:25.146Z,19.29
2019-02-16T10:22:24.773Z,19.29
2019-02-16T10:23:25.054Z,19.29
2019-02-16T10:24:25.202Z,19.29
2019-02-16T10:25:25.526Z,19.3
2019-02-16T10:26:24.709Z,19.3
2019-02-16T10:27:25.096Z,19.28
2019-02-16T10:28:25.511Z,19.3
2019-02-16T10:29:26.873Z,19.29
2019-02-16T10:30:25.217Z,19.29
2019-02-16T10:31:26.560Z,19.29
2019-02-16T10:32:26.836Z,19.28
2019-02-16T10:33:25.143Z,19.3
2019-02-16T10:34:24.949Z,19.28
2019-02-16T10:35:25.184Z,19.3
2019-02-16T10:36:24.914Z,19.3
2019-02-16T10:37:26.558Z,19.28
2019-02-16T10:38:24.868Z,19.3
2019-02-16T10:39:25.389Z,19.3
2019-02-16T10:40:24.798Z,19.29
2019-02-16T10:41:24.919Z,19.29
2019-02-16T10:42:27.929Z,19.29
2019-02-16T10:43:24.995Z,19.29
2019-02-16T10:44:26.783Z,19.3
2019-02-16T10:45:24.749Z,19.3
2019-02-16T10:46:24.933Z,19.31
2019-02-16T10:47:25.060Z,19.31
2019-02-16T10:48:25.143Z,19.3
2019-02-16T10:49:25.830Z,19.32
2019-02-16T10:50:25.981Z,19.32
2019-02-16T10:51:24.863Z,19.31
2019-02-16T10:52:24.841Z,19.32
2019-02-16T10:53:24.885Z,19.33
2019-02-16T10:54:29.907Z,19.32
2019-02-16T10:55:24.980Z,19.32
2019-02-16T10:56:25.206Z,19.32
2019-02-16T10:57:25.007Z,19.33
2019-02-16T10:58:25.197Z,19.36
2019-02-16T10:59:25.363Z,19.35
2019-02-16T11:00:25.249Z,19.33
2019-02-16T11:01:25.111Z,19.36
2019-02-16T11:02:24.772Z,19.32
2019-02-16T11:03:26.631Z,19.33
2019-02-16T11:04:24.881Z,19.32
2019-02-16T11:05:24.740Z,19.33
2019-02-16T11:06:26.657Z,19.33
2019-02-16T11:07:24.998Z,19.35
2019-02-16T11:08:24.892Z,19.33
2019-02-16T11:09:25.196Z,19.37
2019-02-16T11:10:24.882Z,19.35
2019-02-16T11:11:25.230Z,19.38
2019-02-16T11:12:25.105Z,19.36
2019-02-16T11:13:26.107Z,19.36
2019-02-16T11:14:24.776Z,19.38
2019-02-16T11:15:25.028Z,19.35
2019-02-16T11:16:25.032Z,19.36
2019-02-16T11:17:24.722Z,19.38
2019-02-16T11:18:25.053Z,19.39
2019-02-16T11:19:25.061Z,19.38
2019-02-16T11:20:25.098Z,19.4
2019-02-16T11:21:24.995Z,19.39
2019-02-16T11:22:24.640Z,19.4
2019-02-16T11:23:24.822Z,19.4
2019-02-16T11:24:25.223Z,19.39
2019-02-16T11:25:24.965Z,19.42
2019-02-16T11:26:25.144Z,19.41
2019-02-16T11:27:25.801Z,19.42
2019-02-16T11:28:24.923Z,19.4
2019-02-16T11:29:25.022Z,19.41
2019-02-16T11:30:24.829Z,19.41
2019-02-16T11:31:24.713Z,19.42
2019-02-16T11:32:25.775Z,19.42
2019-02-16T11:33:25.592Z,19.42
2019-02-16T11:34:24.540Z,19.41
2019-02-16T11:35:24.994Z,19.42
2019-02-16T11:36:25.200Z,19.44
2019-02-16T11:37:25.153Z,19.43
2019-02-16T11:38:25.004Z,19.42
2019-02-16T11:39:24.896Z,19.41
2019-02-16T11:40:24.780Z,19.43
2019-02-16T11:41:24.893Z,19.45
2019-02-16T11:42:24.795Z,19.45
2019-02-16T11:43:25.038Z,19.47
2019-02-16T11:44:24.885Z,19.46
2019-02-16T11:45:24.695Z,19.45
2019-02-16T11:46:24.835Z,19.46
2019-02-16T11:47:24.772Z,19.45
2019-02-16T11:48:25.198Z,19.47
2019-02-16T11:49:26.513Z,19.5
2019-02-16T11:50:25.103Z,19.47
2019-02-16T11:51:26.598Z,19.47
2019-02-16T11:52:26.869Z,19.46
2019-02-16T11:53:24.939Z,19.47
2019-02-16T11:54:25.683Z,19.47
2019-02-16T11:55:24.872Z,19.46
2019-02-16T11:56:24.814Z,19.47
2019-02-16T11:57:25.275Z,19.48
2019-02-16T11:58:24.783Z,19.48
2019-02-16T11:59:24.890Z,19.47
2019-02-16T12:00:24.795Z,19.45
2019-02-16T12:01:25.023Z,19.45
2019-02-16T12:02:24.546Z,19.45
2019-02-16T12:03:25.256Z,19.47
2019-02-16T12:04:24.999Z,19.44
2019-02-16T12:05:25.099Z,19.45
2019-02-16T12:06:24.728Z,19.45
2019-02-16T12:07:25.336Z,19.43
2019-02-16T12:08:24.930Z,19.44
2019-02-16T12:09:24.875Z,19.43
2019-02-16T12:10:24.723Z,19.43
2019-02-16T12:11:26.642Z,19.44
2019-02-16T12:12:25.170Z,19.42
2019-02-16T12:13:25.207Z,19.43
2019-02-16T12:14:24.897Z,19.43
2019-02-16T12:15:25.073Z,19.44
2019-02-16T12:16:25.972Z,19.4
2019-02-16T12:17:26.687Z,19.4
2019-02-16T12:18:25.140Z,19.4
2019-02-16T12:19:24.772Z,19.39
2019-02-16T12:20:34.196Z,19.38
2019-02-16T12:21:24.770Z,19.39
2019-02-16T12:22:25.307Z,19.39
2019-02-16T12:23:26.648Z,19.38
2019-02-16T12:24:25.253Z,19.35
2019-02-16T12:25:24.784Z,19.36
2019-02-16T12:26:24.846Z,19.37
2019-02-16T12:27:24.850Z,19.36
2019-02-16T12:28:24.842Z,19.35
2019-02-16T12:29:24.669Z,19.36
2019-02-16T12:30:25.021Z,19.33
2019-02-16T12:31:24.782Z,19.31
2019-02-16T12:32:24.996Z,19.31
2019-02-16T12:33:25.052Z,19.32
2019-02-16T12:34:24.865Z,19.32
2019-02-16T12:35:25.007Z,19.29
2019-02-16T12:36:25.492Z,19.3
2019-02-16T12:37:24.685Z,19.28
2019-02-16T12:38:25.505Z,19.29
2019-02-16T12:39:25.137Z,19.28
2019-02-16T12:40:24.640Z,19.27
2019-02-16T12:41:25.201Z,19.27
2019-02-16T12:42:25.050Z,19.26
2019-02-16T12:43:24.901Z,19.24
2019-02-16T12:44:25.317Z,19.25
2019-02-16T12:45:24.636Z,19.24
2019-02-16T12:46:24.697Z,19.25
2019-02-16T12:47:25.021Z,19.25
2019-02-16T12:48:24.852Z,19.23
2019-02-16T12:49:24.791Z,19.23
2019-02-16T12:50:24.951Z,19.25
2019-02-16T12:51:25.006Z,19.23
2019-02-16T12:52:26.490Z,19.23
2019-02-16T12:53:24.847Z,19.23
2019-02-16T12:54:24.912Z,19.22